x

Texas Tower #4 - 75 Nm East Of Long Beach, Nj (44066) Wave Buoy

5:50pm - Fri 24th Oct 2014 All times are EDT. -4 hours from GMT.

  • Sig Wave height 5.9ft
  • Swell Direction
  • Peak Period 6s
  • Average Period 5s
  • Wind
    20mph, 25mph gusts
  • Sea Temp 65°f
  • Air Temp 59°f
  • Sea Pressure 1007.8mb
  • Texas Tower #4 - 75 Nm East Of Long Beach, Nj
  • Texas Tower #4 - 75 Nm East Of Long Beach, Nj

More Historic Weather Station data

Upgrade to MSW Pro to gain access to the past 30 days of data for over 8000 Wavebouys and Weather Stations around the globe.

Join Pro

Comparision Forecast

View Surf forecast
   
Fri 10/24 5:50pm 6ft 6s 5s 20 25 mph 1007.8mb 65f 59f
4:50pm 5.5ft 6s 5s 22 27 mph 1007.4mb 66f 59f
3:50pm 6ft 6s 5s 20 25 mph 1007.4mb 66f 58f
2:50pm 6ft 6s 5s 25 27 mph 1007.1mb 66f 57f
1:50pm 6ft 6s 5s 20 25 mph 1007.5mb 66f 57f
12:50pm 6.5ft 6s 5s 22 27 mph 1007.8mb 66f 56f
11:50am 7ft 6s 5s 22 29 mph 1008.2mb 66f 56f
10:50am 7ft 6s 5s 20 25 mph 1007.8mb 66f 56f
9:50am 7.5ft 6s 6s 22 25 mph 1007.8mb 66f 56f
8:50am 7.5ft 7s 6s 25 29 mph 1007.4mb 66f 57f
7:50am 8ft 7s 6s 22 29 mph 1007mb 66f 57f
6:50am  -   -   -  25 31 mph 1006.6mb 66f 57f
5:50am 9ft 7s 6s 25 31 mph 1006.3mb 66f 57f
4:50am 10ft 7s 6s 22 29 mph 1005.9mb 66f 57f
3:50am 9ft 7s 6s 25 29 mph 1005.1mb 66f 57f
2:50am 10ft 8s 6s 25 31 mph 1004.9mb 66f 57f
1:50am 10ft 7s 6s 25 31 mph 1004.8mb 66f 56f
12:50am 9.5ft 8s 6s 27 31 mph 1004.2mb 66f 57f
Thu 10/23 11:50pm 10.5ft 7s 6s 29 36 mph 1004.4mb 66f 56f
10:50pm 9.5ft 7s 6s 31 36 mph 1004mb 66f 57f
9:50pm 10ft 8s 6s 29 36 mph 1004.2mb 66f 57f
8:50pm 10ft 7s 6s 29 36 mph 1003.7mb 66f 57f
7:50pm 10.5ft 7s 6s 27 31 mph 1003.2mb 66f 58f
6:50pm 9.5ft 7s 6s 29 36 mph 1002.9mb 66f 57f
5:50pm 10ft 7s 6s 27 34 mph 1002.1mb 66f 57f
4:50pm 10ft 7s 6s 27 31 mph 1001.5mb 67f 57f
3:50pm 9.5ft 7s 6s 27 34 mph 1001.2mb 67f 58f
2:50pm 9.5ft 7s 6s 27 31 mph 1001mb 67f 57f
1:50pm 9ft 8s 6s 25 34 mph 1000.8mb 67f 58f
12:50pm 10ft 7s 6s 25 31 mph 1001.1mb 67f 58f
11:50am 9.5ft 8s 6s 27 31 mph 1001.1mb 67f 58f
10:50am 10ft 7s 6s 27 34 mph 1000.9mb 67f 58f
9:50am 10ft 8s 6s 27 31 mph 1000.7mb 67f 58f
8:50am 11ft 8s 6s 29 36 mph 1000.2mb 67f 58f
7:50am 12ft 8s 7s 31 36 mph 999.4mb 67f 59f
6:50am 12ft 8s 6s 29 38 mph 999.1mb 67f 60f
5:50am 11ft 8s 6s 31 36 mph 998.7mb 67f 61f
4:50am 11ft 8s 6s 31 36 mph 998.7mb 67f 61f
3:50am  -   -   -  22 34 mph 998.9mb 67f 58f
2:50am  -   -   -  31 40 mph 998mb 67f 62f
1:50am 10ft 8s 6s 27 31 mph 998.6mb 67f 63f
12:50am 10.5ft 9s 6s 27 31 mph 998.9mb 67f 62f
Wed 10/22 11:50pm  -   -   -  29
mph
- - 62f
10:50pm 13ft 10s 7s 29 36 mph 999.2mb 67f 62f
9:50pm 12ft 9s 6s 16 25 mph 999.5mb 67f 61f
8:50pm  -   -   -  29 40 mph 999.8mb 66f 58f
7:50pm 14ft 9s 7s 36 45 mph 1000.4mb 66f 58f
6:50pm  -   -   -  38 47 mph 1000.9mb 66f 59f
5:50pm  -   -   -  40 51 mph 1000.5mb 66f 61f
4:50pm  -   -   -  36 45 mph 1001.1mb 66f 62f
3:50pm  -   -   -  43 51 mph 1000.1mb 66f 63f
1:50pm 11.5ft 7s 6s 34 43 mph 1003.7mb 66f 62f
12:50pm  -   -   -  29 36 mph 1005.6mb 66f 62f
11:50am  -   -   -  20 22 mph 1007.6mb 66f 58f
10:50am 10ft 7s 6s 20 31 mph 1007mb 66f 58f
9:50am  -   -   -  13 22 mph 1007.7mb 66f 59f
8:50am  -   -   -  25 29 mph 1006.8mb 66f 66f
7:50am 6ft 8s 5s 16 20 mph 1007.3mb 66f 67f
6:50am 5.5ft 8s 5s 22 27 mph 1006.9mb 66f 67f
5:50am 5ft 8s 5s 18 22 mph 1007.9mb 66f 66f
4:50am 4.5ft 8s 5s 18 22 mph 1008.1mb 66f 66f
3:50am 4.5ft 8s 5s 13 18 mph 1008.9mb 66f 65f
2:50am 3.5ft 7s 5s 16 18 mph 1009mb 66f 65f
1:50am 3.5ft 6s 5s 13 16 mph 1010mb 66f 65f
12:50am 3.5ft 7s 5s 13 16 mph 1010.6mb 66f 64f
Tue 10/21 11:50pm 4ft 6s 5s 13 16 mph 1011.1mb 66f 64f
10:50pm 4.5ft 7s 5s 11
mph
1011.7mb 66f 64f
9:50pm  -   -   -  11 13 mph 1011.4mb 66f 63f
8:50pm 4ft 7s 6s 16 20 mph 1010.9mb 67f 63f
7:50pm 4ft 7s 5s 2 4 mph 1010.7mb 67f 65f
6:50pm 4ft 7s 5s 4 7 mph 1010.4mb 67f 65f
5:50pm 4.5ft 7s 5s 7
mph
1009.8mb 67f 66f
4:50pm 4.5ft 6s 5s 7 9 mph 1009.7mb 67f 67f
3:50pm 5ft 7s 5s 9 11 mph 1009.7mb 67f 67f
2:50pm 4.5ft 6s 5s 13 16 mph 1009.7mb 67f 66f
1:50pm 3.5ft 6s 5s 2 9 mph 1010.5mb 67f 63f
12:50pm 3.5ft 6s 5s 7 9 mph 1011.6mb 66f 66f
11:50am 3.5ft 6s 5s 7
mph
1012.1mb 66f 66f
10:50am 4ft 6s 5s 9 11 mph 1012.3mb 66f 66f
9:50am 4ft 6s 5s 9 11 mph 1012.8mb 66f 66f
8:50am 3.5ft 6s 5s 9 11 mph 1012.8mb 66f 65f
7:50am 3.5ft 6s 5s 7 9 mph 1012.4mb 66f 65f
6:50am 3.5ft 6s 5s 7 9 mph 1012.6mb 66f 65f
5:50am 4.5ft 6s 5s 7 11 mph 1012.9mb 66f 64f
4:50am 4.5ft 7s 5s 7 9 mph 1013mb 66f 65f
3:50am 4.5ft 6s 5s 11 13 mph 1013.1mb 66f 65f
2:50am 5ft 6s 5s 16 18 mph 1013.9mb 66f 65f
1:50am 5ft 6s 5s 18 22 mph 1014.5mb 66f 65f
12:50am 5ft 6s 5s 20 25 mph 1015.4mb 66f 64f
Mon 10/20 11:50pm 5ft 6s 5s 20 25 mph 1015.8mb 66f 64f